METAR Data
IDs: Format: Raw Decoded Include TAF

Data at: 1347 UTC 21 Apr 2021

METAR for:KCNC (Chariton Muni, IA, US)
Text:KCNC 211335Z AUTO 31010KT 10SM FEW050 SCT055 02/M04 A3018 RMK AO2
Temperature: 2.0°C ( 36°F)
Dewpoint: -4.0°C ( 25°F) [RH = 64%]
Pressure (altimeter):30.18 inches Hg (1022.1 mb)
Winds:from the NW (310 degrees) at 12 MPH (10 knots; 5.1 m/s)
Visibility:10 or more sm (16+ km)
Ceiling:at least 12,000 feet AGL
Clouds: few clouds at 5000 feet AGL, scattered clouds at 5500 feet AGL
QC Flag:automated observation with no human augmentation